Tuscumbia, Alabama
Current Conditions -  °F | °C
As of 1:53 PM on Thursday 18 Dec 2014 (Local Time) from KMSL Reporting Station
Overcast Overcast  
Wind Chill: 45°   Ceiling: 4900
Heat Index: 45°   Visibility: 10mi
Dew Point: 34°   Wind: 0mph
Humidity: 65%   Direction: NA
Pressure: 30.19"   Gusts: NA
Location:  34.73°N, 87.7°W
Report Text: KMSL 181953Z AUTO 00000KT 10SM SCT041 OVC049 07/01 A3019 RMK AO2 SLP223 T00720011
Loading
Personal Weather Stations






























Interactive Weather Map New forecast layout! Learn more

10-Day Weather Forecast

Advertisements
Track Severe Weather on mobile